Terminal Aerodrome Forecast
Issued by NWS

Current Version | Previous Version | Graphics & Text | Print | Product List | Glossary On
Versions: 1 2 3 4 5 6 7 8 9 10 11 12 13 14 15 16 17 18 19 20 21
453
FTUS41 KPBZ 081720
TAFHLG
TAF
KHLG 081720Z 0818/0918 27015G25KT P6SM OVC030
     FM091300 27010G20KT P6SM -SHSN OVC025=

USA.gov is the U.S. government's official web portal to all federal, state and local government web resources and services.